Villa Ana, Argentina
Current Conditions -  °F | °C
As of 11:00 PM on Monday 22 Dec 2014 (Local Time) from SARE Reporting Station
Clear Clear  
Wind Chill: 64°   Ceiling: Unl
Heat Index: 64°   Visibility: 6mi
Dew Point: 55°   Wind: 6mph
Humidity: 73%   Direction: 180°S
Pressure: 30.12"   Gusts: NA
Location:  28.48°S, 59.62°W
Report Text: SARE 230200Z 18005KT CAVOK 18/13 Q1020
Loading
Personal Weather Stations






























Interactive Weather Map New forecast layout! Learn more

10-Day Weather Forecast

Advertisements
Track Severe Weather on mobile